Nearby METAR Reports

 

KLBE - Latrobe/Westmorl, Pennsylvania, USA
Distance from station: SE 16mi, 26km
Updated: Fri, 22-Sep-2017 5:45pm EDT
Mostly cloudy
Mostly cloudy
 Wind from calm
Wind: Calm
Temperature: 81°F , 27°C
Heat Index: 81°F , 27°C
Dew Point: 59°F , 15°C
Humidity: 48%
Barometer: 30.09 inHg , 1019 hPa
Clouds: Mostly cloudy
Visibility: 10 miles , 16 km
Cloud details: Mostly cloudy 25000 ft
2017/09/22 21:45 KLBE 222145Z 00000KT 10SM BKN250 27/15 A3009
KAGC - Pittsburgh/Alleg, Pennsylvania, USA
Distance from station: WSW 18mi, 30km
Updated: Fri, 22-Sep-2017 5:53pm EDT
Clear
Clear
 Wind from calm
Wind: Calm
Temperature: 82°F , 28°C
Heat Index: 81°F , 27°C
Dew Point: 55°F , 13°C
Humidity: 40%
Barometer: 30.08 inHg , 1018.6 hPa
Clouds: Clear
Visibility: 10 miles , 16 km
2017/09/22 21:53 KAGC 222153Z 00000KT 10SM CLR 28/13 A3008 RMK AO2 SLP181 T02830133
 
KBTP - Butler Co., Pennsylvania, USA
Distance from station: NW 29mi, 47km
Updated: Fri, 22-Sep-2017 5:56pm EDT
Clear
Clear
 Wind from NNE
Wind: NNE 3 mph , 6 km/h
Temperature: 82°F , 28°C
Heat Index: 82°F , 28°C
Dew Point: 59°F , 15°C
Humidity: 45%
Barometer: 30.09 inHg , 1019 hPa
Clouds: Clear
Visibility: 10 miles , 16 km
2017/09/22 21:56 KBTP 222156Z AUTO 02003KT 10SM CLR 28/15 A3009 RMK AO2 SLP190 T02780150
KIDI - Indiana/Stewart, Pennsylvania, USA
Distance from station: ENE 29mi, 47km
Updated: Fri, 22-Sep-2017 6:15pm EDT
Clear
Clear
 Wind from calm
Wind: Calm
Temperature: 81°F , 27°C
Dew Point: 52°F , 11°C
Humidity: 37%
Barometer: 30.12 inHg , 1020 hPa
Clouds: Clear
Visibility: 10 miles , 16 km
2017/09/22 22:15 KIDI 222215Z AUTO 00000KT 10SM CLR 27/11 A3012 RMK A01
 
KPIT - Pittsburgh, Pennsylvania, USA
Distance from station: W 36mi, 57km
Updated: Fri, 22-Sep-2017 5:51pm EDT
Mostly cloudy
Mostly cloudy
 Wind from NNE
Wind: NNE 7 mph , 11 km/h
Temperature: 86°F , 30°C
Dew Point: 54°F , 12°C
Humidity: 33%
Barometer: 30.08 inHg , 1018.6 hPa
Clouds: Mostly cloudy
Visibility: 10 miles , 16 km
Cloud details: Few Clouds 15000 ft
Mostly cloudy 25000 ft
2017/09/22 21:51 KPIT 222151Z 02006KT 10SM FEW150 BKN250 30/12 A3008 RMK AO2 SLP185 T03000117
KJST - Johnstown, Pennsylvania, USA
Distance from station: ESE 41mi, 66km
Updated: Fri, 22-Sep-2017 5:54pm EDT
Clear
Clear
 Wind from NW
Wind: NW 8 mph , 13 km/h
Temperature: 79°F , 26°C
Dew Point: 54°F , 12°C
Humidity: 42%
Barometer: 30.13 inHg , 1020.3 hPa
Clouds: Clear
Visibility: 10 miles , 16 km
2017/09/22 21:54 KJST 222154Z AUTO 32007KT 10SM CLR 26/12 A3013 RMK AO2 SLP188 T02610122
 
KAFJ - Washington, Pennsylvania, USA
Distance from station: WSW 42mi, 68km
Updated: Fri, 22-Sep-2017 6:15pm EDT
Clear
Clear
 Wind from calm
Wind: Calm
Temperature: 73°F , 23°C
Dew Point: 64°F , 18°C
Humidity: 74%
Barometer: 30.09 inHg , 1019 hPa
Clouds: Clear
Visibility: 10 miles , 16 km
2017/09/22 22:15 KAFJ 222215Z AUTO 00000KT 10SM CLR 23/18 A3009 RMK AO1
KBVI - Beaver Falls Arp, Pennsylvania, USA
Distance from station: WNW 48mi, 77km
Updated: Fri, 22-Sep-2017 5:47pm EDT
Clear
Clear
 Wind from N
Wind: N 6 mph , 9 km/h
Temperature: 82°F , 28°C
Dew Point: 54°F , 12°C
Humidity: 37%
Barometer: 30.09 inHg , 1019 hPa
Clouds: Clear
Visibility: 10 miles , 16 km
2017/09/22 21:47 KBVI 222147Z 36005KT 10SM CLR 28/12 A3009